createdAt,value
2022-10-02T00:00:08.301Z,7.44
2022-10-02T00:01:08.341Z,7.57
2022-10-02T00:02:08.295Z,7.42
2022-10-02T00:03:08.272Z,7.41
2022-10-02T00:04:08.276Z,7.50
2022-10-02T00:05:08.263Z,7.54
2022-10-02T00:06:08.237Z,7.50
2022-10-02T00:07:08.225Z,7.57
2022-10-02T00:08:08.260Z,7.54
2022-10-02T00:09:08.213Z,7.60
2022-10-02T00:10:08.195Z,7.51
2022-10-02T00:11:08.190Z,7.52
2022-10-02T00:12:08.173Z,7.47
2022-10-02T00:13:08.158Z,7.48
2022-10-02T00:14:08.244Z,7.50
2022-10-02T00:15:08.151Z,7.57
2022-10-02T00:16:08.213Z,7.52
2022-10-02T00:17:08.328Z,7.57
2022-10-02T00:18:08.109Z,7.52
2022-10-02T00:19:08.101Z,7.57
2022-10-02T00:20:08.113Z,7.45
2022-10-02T00:21:08.083Z,7.54
2022-10-02T00:22:08.059Z,7.62
2022-10-02T00:23:08.051Z,7.48
2022-10-02T00:24:08.064Z,7.66
2022-10-02T00:25:08.035Z,7.50
2022-10-02T00:26:08.061Z,7.57
2022-10-02T00:27:08.008Z,7.42
2022-10-02T00:28:08.071Z,7.48
2022-10-02T00:29:07.995Z,7.52
2022-10-02T00:30:07.974Z,7.57
2022-10-02T00:31:07.963Z,7.47
2022-10-02T00:32:08.033Z,7.63
2022-10-02T00:33:07.944Z,7.57
2022-10-02T00:34:09.277Z,7.58
2022-10-02T00:35:07.920Z,7.55
2022-10-02T00:36:07.909Z,7.55
2022-10-02T00:37:07.899Z,7.51
2022-10-02T00:38:07.894Z,7.55
2022-10-02T00:39:07.892Z,7.48
2022-10-02T00:40:07.888Z,7.45
2022-10-02T00:41:07.854Z,7.51
2022-10-02T00:42:07.843Z,7.52
2022-10-02T00:43:07.840Z,7.57
2022-10-02T00:44:07.883Z,7.57
2022-10-02T00:45:07.819Z,7.52
2022-10-02T00:46:07.926Z,7.45
2022-10-02T00:47:07.788Z,7.52
2022-10-02T00:48:07.786Z,7.63
2022-10-02T00:49:07.771Z,7.57
2022-10-02T00:50:07.847Z,7.54
2022-10-02T00:51:07.743Z,7.57
2022-10-02T00:52:07.744Z,7.54
2022-10-02T00:53:07.724Z,7.63
2022-10-02T00:54:07.711Z,7.55
2022-10-02T00:55:07.718Z,7.52
2022-10-02T00:56:07.751Z,7.60
2022-10-02T00:57:07.683Z,7.58
2022-10-02T00:58:07.669Z,7.63
2022-10-02T00:59:07.661Z,7.60
2022-10-02T01:00:07.646Z,7.62
2022-10-02T01:01:07.733Z,7.63
2022-10-02T01:02:07.748Z,7.58
2022-10-02T01:03:07.615Z,7.69
2022-10-02T01:04:07.620Z,7.66
2022-10-02T01:05:07.600Z,7.70
2022-10-02T01:06:07.585Z,7.71
2022-10-02T01:07:07.573Z,7.70
2022-10-02T01:08:07.622Z,7.76
2022-10-02T01:09:07.551Z,7.63
2022-10-02T01:10:07.550Z,7.81
2022-10-02T01:11:07.530Z,7.76
2022-10-02T01:12:07.544Z,7.77
2022-10-02T01:13:07.537Z,7.74
2022-10-02T01:14:07.573Z,7.73
2022-10-02T01:15:07.486Z,7.79
2022-10-02T01:16:07.492Z,7.84
2022-10-02T01:17:07.465Z,7.89
2022-10-02T01:18:07.454Z,7.84
2022-10-02T01:19:07.452Z,7.89
2022-10-02T01:20:07.494Z,7.88
2022-10-02T01:21:07.420Z,7.76
2022-10-02T01:22:07.458Z,7.74
2022-10-02T01:23:07.400Z,7.96
2022-10-02T01:24:07.388Z,7.76
2022-10-02T01:25:07.374Z,7.82
2022-10-02T01:26:07.422Z,7.85
2022-10-02T01:27:07.353Z,7.86
2022-10-02T01:28:07.417Z,7.79
2022-10-02T01:29:07.334Z,7.73
2022-10-02T01:30:07.320Z,7.82
2022-10-02T01:31:07.325Z,7.67
2022-10-02T01:32:07.329Z,7.81
2022-10-02T01:33:07.287Z,7.71
2022-10-02T01:34:07.276Z,7.73
2022-10-02T01:35:07.270Z,7.86
2022-10-02T01:36:07.255Z,7.74
2022-10-02T01:37:07.257Z,7.81
2022-10-02T01:38:07.276Z,7.77
2022-10-02T01:39:07.437Z,7.89
2022-10-02T01:40:07.435Z,7.89
2022-10-02T01:41:07.201Z,7.77
2022-10-02T01:42:07.188Z,7.77
2022-10-02T01:43:07.195Z,7.66
2022-10-02T01:44:07.225Z,7.73
2022-10-02T01:45:07.157Z,7.74
2022-10-02T01:46:07.187Z,7.73
2022-10-02T01:47:07.133Z,7.71
2022-10-02T01:48:07.133Z,7.73
2022-10-02T01:49:07.111Z,7.77
2022-10-02T01:50:07.170Z,7.63
2022-10-02T01:51:07.089Z,7.70
2022-10-02T01:52:07.089Z,7.71
2022-10-02T01:53:07.176Z,7.70
2022-10-02T01:54:07.059Z,7.81
2022-10-02T01:55:07.045Z,7.73
2022-10-02T01:56:07.110Z,7.77
2022-10-02T01:57:07.037Z,7.73
2022-10-02T01:58:07.014Z,7.74
2022-10-02T01:59:07.017Z,7.73
2022-10-02T02:00:07.016Z,7.76
2022-10-02T02:01:07.042Z,7.69
2022-10-02T02:02:07.024Z,7.76
2022-10-02T02:03:06.967Z,7.74
2022-10-02T02:04:06.947Z,7.69
2022-10-02T02:05:06.945Z,7.57
2022-10-02T02:06:06.930Z,7.71
2022-10-02T02:07:06.945Z,7.71
2022-10-02T02:08:06.984Z,7.81
2022-10-02T02:09:06.895Z,7.71
2022-10-02T02:10:06.897Z,7.70
2022-10-02T02:11:06.873Z,7.57
2022-10-02T02:12:06.866Z,7.88
2022-10-02T02:13:06.878Z,7.79
2022-10-02T02:14:06.920Z,7.77
2022-10-02T02:15:06.832Z,7.71
2022-10-02T02:16:06.889Z,7.67
2022-10-02T02:17:06.808Z,7.63
2022-10-02T02:18:06.905Z,7.62
2022-10-02T02:19:06.849Z,7.71
2022-10-02T02:20:06.832Z,7.69
2022-10-02T02:21:06.764Z,7.76
2022-10-02T02:22:06.754Z,7.70
2022-10-02T02:23:06.745Z,7.66
2022-10-02T02:24:06.739Z,7.67
2022-10-02T02:25:06.732Z,7.67
2022-10-02T02:26:07.021Z,7.62
2022-10-02T02:27:06.713Z,7.57
2022-10-02T02:28:06.804Z,7.67
2022-10-02T02:29:06.687Z,7.62
2022-10-02T02:30:06.685Z,7.51
2022-10-02T02:31:06.658Z,7.55
2022-10-02T02:32:06.718Z,7.51
2022-10-02T02:33:06.634Z,7.57
2022-10-02T02:34:06.833Z,7.45
2022-10-02T02:35:06.616Z,7.52
2022-10-02T02:36:06.619Z,7.51
2022-10-02T02:37:06.592Z,7.60
2022-10-02T02:38:06.631Z,7.54
2022-10-02T02:39:06.568Z,7.50
2022-10-02T02:40:06.557Z,7.58
2022-10-02T02:41:06.548Z,7.62
2022-10-02T02:42:06.547Z,7.71
2022-10-02T02:43:06.531Z,7.58
2022-10-02T02:44:06.523Z,7.73
2022-10-02T02:45:06.529Z,7.69
2022-10-02T02:46:06.586Z,7.71
2022-10-02T02:47:06.538Z,7.74
2022-10-02T02:48:06.494Z,7.69
2022-10-02T02:49:06.462Z,7.73
2022-10-02T02:50:06.486Z,7.66
2022-10-02T02:51:06.438Z,7.70
2022-10-02T02:52:06.429Z,7.86
2022-10-02T02:53:06.425Z,7.76
2022-10-02T02:54:06.405Z,7.73
2022-10-02T02:55:06.394Z,7.69
2022-10-02T02:56:06.397Z,7.89
2022-10-02T02:57:06.373Z,7.77
2022-10-02T02:58:06.373Z,7.67
2022-10-02T02:59:06.352Z,7.74
2022-10-02T03:00:06.343Z,7.79
2022-10-02T03:01:06.421Z,7.67
2022-10-02T03:02:06.369Z,7.63
2022-10-02T03:03:06.307Z,7.58
2022-10-02T03:04:06.327Z,7.62
2022-10-02T03:05:06.284Z,7.85
2022-10-02T03:06:06.275Z,7.62
2022-10-02T03:07:06.349Z,7.70
2022-10-02T03:08:06.256Z,7.73
2022-10-02T03:09:06.249Z,7.74
2022-10-02T03:10:06.228Z,7.66
2022-10-02T03:11:06.297Z,7.69
2022-10-02T03:12:06.207Z,7.67
2022-10-02T03:13:06.204Z,7.54
2022-10-02T03:14:06.246Z,7.62
2022-10-02T03:15:06.174Z,7.69
2022-10-02T03:16:06.233Z,7.60
2022-10-02T03:17:06.165Z,7.71
2022-10-02T03:18:06.149Z,7.66
2022-10-02T03:19:06.190Z,7.54
2022-10-02T03:20:06.145Z,7.63
2022-10-02T03:21:06.112Z,7.60
2022-10-02T03:22:06.111Z,7.67
2022-10-02T03:23:06.085Z,7.60
2022-10-02T03:24:06.077Z,7.58
2022-10-02T03:25:06.122Z,7.63
2022-10-02T03:26:06.051Z,7.58
2022-10-02T03:27:06.046Z,7.67
2022-10-02T03:28:06.062Z,7.63
2022-10-02T03:29:06.338Z,7.76
2022-10-02T03:30:06.014Z,7.66
2022-10-02T03:31:06.098Z,7.69
2022-10-02T03:32:05.995Z,7.58
2022-10-02T03:33:06.001Z,7.67
2022-10-02T03:34:05.968Z,7.70
2022-10-02T03:35:05.963Z,7.73
2022-10-02T03:36:06.024Z,7.66
2022-10-02T03:37:05.937Z,7.69
2022-10-02T03:38:05.939Z,7.66
2022-10-02T03:39:24.297Z,7.71
2022-10-02T03:40:06.902Z,7.69
2022-10-02T03:41:05.889Z,7.71
2022-10-02T03:42:05.889Z,7.79
2022-10-02T03:43:05.921Z,7.73
2022-10-02T03:44:05.857Z,7.62
2022-10-02T03:45:05.848Z,7.67
2022-10-02T03:46:05.874Z,7.70
2022-10-02T03:47:05.825Z,7.66
2022-10-02T03:48:05.825Z,7.77
2022-10-02T03:49:05.861Z,7.79
2022-10-02T03:50:05.792Z,7.73
2022-10-02T03:51:05.780Z,7.73
2022-10-02T03:52:05.885Z,7.81
2022-10-02T03:53:05.776Z,7.62
2022-10-02T03:54:05.747Z,7.82
2022-10-02T03:55:05.799Z,7.66
2022-10-02T03:56:05.727Z,7.82
2022-10-02T03:57:05.715Z,7.71
2022-10-02T03:58:05.717Z,7.74
2022-10-02T03:59:05.693Z,7.77
2022-10-02T04:00:05.686Z,7.74
2022-10-02T04:01:05.698Z,7.67
2022-10-02T04:02:05.699Z,7.73
2022-10-02T04:03:05.653Z,7.73
2022-10-02T04:04:05.649Z,7.71
2022-10-02T04:05:05.631Z,7.67
2022-10-02T04:06:05.616Z,7.73
2022-10-02T04:07:05.662Z,7.74
2022-10-02T04:08:05.725Z,7.73
2022-10-02T04:09:05.584Z,7.63
2022-10-02T04:10:05.575Z,7.74
2022-10-02T04:11:05.560Z,7.71
2022-10-02T04:12:05.553Z,7.73
2022-10-02T04:13:05.546Z,7.67
2022-10-02T04:14:05.633Z,7.76
2022-10-02T04:15:05.516Z,7.73
2022-10-02T04:16:05.632Z,7.82
2022-10-02T04:17:05.503Z,7.73
2022-10-02T04:18:05.484Z,7.70
2022-10-02T04:19:05.569Z,7.71
2022-10-02T04:20:05.475Z,7.82
2022-10-02T04:21:05.454Z,7.73
2022-10-02T04:22:05.440Z,7.71
2022-10-02T04:23:05.433Z,7.71
2022-10-02T04:24:05.448Z,7.69
2022-10-02T04:25:05.493Z,7.76
2022-10-02T04:26:05.400Z,7.70
2022-10-02T04:27:05.385Z,7.81
2022-10-02T04:28:05.503Z,7.76
2022-10-02T04:29:05.380Z,7.70
2022-10-02T04:30:05.352Z,7.81
2022-10-02T04:31:05.613Z,7.74
2022-10-02T04:32:05.330Z,7.73
2022-10-02T04:33:05.319Z,7.74
2022-10-02T04:34:05.311Z,7.73
2022-10-02T04:35:05.297Z,7.82
2022-10-02T04:36:05.290Z,7.85
2022-10-02T04:37:05.365Z,7.88
2022-10-02T04:38:05.268Z,7.82
2022-10-02T04:39:05.257Z,7.77
2022-10-02T04:40:05.269Z,7.73
2022-10-02T04:41:05.233Z,7.67
2022-10-02T04:42:05.262Z,7.67
2022-10-02T04:43:05.293Z,7.76
2022-10-02T04:44:05.202Z,7.71
2022-10-02T04:45:05.189Z,7.71
2022-10-02T04:46:05.311Z,7.81
2022-10-02T04:47:05.177Z,7.84
2022-10-02T04:48:05.157Z,7.85
2022-10-02T04:49:05.150Z,7.74
2022-10-02T04:50:05.146Z,7.70
2022-10-02T04:51:05.194Z,7.77
2022-10-02T04:52:05.113Z,7.77
2022-10-02T04:53:05.105Z,7.70
2022-10-02T04:54:05.097Z,7.81
2022-10-02T04:55:05.107Z,7.74
2022-10-02T04:56:05.093Z,7.69
2022-10-02T04:57:05.126Z,7.74
2022-10-02T04:58:05.045Z,7.74
2022-10-02T04:59:05.040Z,7.77
2022-10-02T05:00:05.033Z,7.74
2022-10-02T05:01:05.075Z,7.66
2022-10-02T05:02:05.064Z,7.81
2022-10-02T05:03:05.065Z,7.77
2022-10-02T05:04:04.984Z,7.69
2022-10-02T05:05:04.970Z,7.76
2022-10-02T05:06:04.973Z,7.70
2022-10-02T05:07:04.950Z,7.76
2022-10-02T05:08:04.939Z,7.89
2022-10-02T05:09:04.931Z,7.85
2022-10-02T05:10:05.033Z,7.86
2022-10-02T05:11:04.906Z,7.85
2022-10-02T05:12:04.934Z,7.76
2022-10-02T05:13:04.886Z,7.81
2022-10-02T05:14:04.876Z,7.85
2022-10-02T05:15:04.885Z,7.71
2022-10-02T05:16:04.999Z,7.91
2022-10-02T05:17:04.839Z,7.76
2022-10-02T05:18:04.833Z,7.85
2022-10-02T05:19:04.895Z,7.84
2022-10-02T05:20:04.808Z,7.88
2022-10-02T05:21:04.807Z,7.92
2022-10-02T05:22:04.877Z,7.88
2022-10-02T05:23:04.780Z,7.92
2022-10-02T05:24:04.768Z,7.96
2022-10-02T05:25:04.753Z,7.96
2022-10-02T05:26:05.376Z,8.02
2022-10-02T05:27:04.731Z,8.04
2022-10-02T05:28:04.870Z,8.02
2022-10-02T05:29:04.711Z,7.94
2022-10-02T05:30:04.699Z,8.02
2022-10-02T05:31:04.759Z,7.89
2022-10-02T05:32:04.674Z,7.85
2022-10-02T05:33:04.698Z,7.74
2022-10-02T05:34:04.706Z,7.82
2022-10-02T05:35:04.646Z,7.92
2022-10-02T05:36:04.632Z,7.94
2022-10-02T05:37:04.619Z,7.91
2022-10-02T05:38:04.613Z,7.88
2022-10-02T05:39:04.599Z,7.89
2022-10-02T05:40:04.624Z,7.94
2022-10-02T05:41:04.576Z,7.88
2022-10-02T05:42:04.565Z,8.00
2022-10-02T05:43:04.556Z,8.00
2022-10-02T05:44:04.643Z,8.12
2022-10-02T05:45:04.535Z,8.00
2022-10-02T05:46:04.595Z,8.10
2022-10-02T05:47:04.547Z,8.03
2022-10-02T05:48:04.504Z,8.03
2022-10-02T05:49:04.502Z,8.06
2022-10-02T05:50:04.481Z,8.10
2022-10-02T05:51:04.472Z,8.14
2022-10-02T05:52:04.461Z,8.07
2022-10-02T05:53:04.449Z,8.18
2022-10-02T05:54:04.444Z,8.13
2022-10-02T05:55:04.424Z,8.22
2022-10-02T05:56:04.413Z,8.27
2022-10-02T05:57:04.405Z,8.14
2022-10-02T05:58:04.458Z,8.22
2022-10-02T05:59:04.382Z,8.20
2022-10-02T06:00:04.400Z,8.25
2022-10-02T06:01:04.435Z,8.20
2022-10-02T06:02:04.404Z,8.21
2022-10-02T06:03:04.340Z,8.27
2022-10-02T06:04:04.393Z,8.29
2022-10-02T06:05:04.325Z,8.28
2022-10-02T06:06:04.299Z,8.29
2022-10-02T06:07:04.295Z,8.31
2022-10-02T06:08:04.283Z,8.31
2022-10-02T06:09:04.283Z,8.31
2022-10-02T06:10:04.405Z,8.27
2022-10-02T06:11:04.267Z,8.31
2022-10-02T06:12:04.247Z,8.29
2022-10-02T06:13:04.230Z,8.45
2022-10-02T06:14:04.270Z,8.36
2022-10-02T06:15:04.217Z,8.39
2022-10-02T06:16:04.263Z,8.34
2022-10-02T06:17:04.242Z,8.46
2022-10-02T06:18:04.171Z,8.39
2022-10-02T06:19:04.171Z,8.34
2022-10-02T06:20:04.310Z,8.43
2022-10-02T06:21:04.139Z,8.28
2022-10-02T06:22:04.218Z,8.29
2022-10-02T06:23:04.122Z,8.28
2022-10-02T06:24:04.109Z,8.36
2022-10-02T06:25:04.098Z,8.21
2022-10-02T06:26:04.088Z,8.24
2022-10-02T06:27:04.087Z,8.32
2022-10-02T06:28:04.180Z,8.31
2022-10-02T06:29:04.055Z,8.29
2022-10-02T06:30:04.041Z,8.37
2022-10-02T06:31:04.034Z,8.28
2022-10-02T06:32:04.123Z,8.32
2022-10-02T06:33:04.011Z,8.27
2022-10-02T06:34:04.024Z,8.43
2022-10-02T06:35:03.984Z,8.40
2022-10-02T06:36:03.975Z,8.52
2022-10-02T06:37:03.979Z,8.37
2022-10-02T06:38:03.955Z,8.50
2022-10-02T06:39:04.061Z,8.54
2022-10-02T06:40:03.938Z,8.39
2022-10-02T06:41:03.922Z,8.43
2022-10-02T06:42:03.913Z,8.42
2022-10-02T06:43:03.901Z,8.57
2022-10-02T06:44:03.886Z,8.58
2022-10-02T06:45:03.890Z,8.50
2022-10-02T06:46:03.934Z,8.57
2022-10-02T06:47:03.861Z,8.68
2022-10-02T06:48:03.874Z,8.68
2022-10-02T06:49:03.838Z,8.60
2022-10-02T06:50:03.831Z,8.64
2022-10-02T06:51:03.814Z,8.63
2022-10-02T06:52:03.864Z,8.63
2022-10-02T06:53:03.805Z,8.58
2022-10-02T06:54:03.788Z,8.71
2022-10-02T06:55:03.792Z,8.70
2022-10-02T06:56:03.761Z,8.68
2022-10-02T06:57:03.749Z,8.83
2022-10-02T06:58:03.797Z,8.68
2022-10-02T06:59:03.736Z,8.71
2022-10-02T07:00:03.718Z,8.67
2022-10-02T07:01:03.805Z,8.65
2022-10-02T07:02:03.758Z,8.70
2022-10-02T07:03:03.696Z,8.75
2022-10-02T07:04:03.753Z,8.83
2022-10-02T07:05:03.685Z,8.78
2022-10-02T07:06:03.652Z,8.75
2022-10-02T07:07:03.758Z,8.83
2022-10-02T07:08:03.641Z,8.86
2022-10-02T07:09:03.621Z,8.83
2022-10-02T07:10:03.668Z,8.89
2022-10-02T07:11:03.602Z,8.85
2022-10-02T07:12:03.591Z,8.83
2022-10-02T07:13:03.590Z,8.86
2022-10-02T07:14:03.575Z,8.86
2022-10-02T07:15:03.558Z,8.97
2022-10-02T07:16:03.678Z,8.97
2022-10-02T07:17:03.547Z,8.88
2022-10-02T07:18:03.532Z,8.93
2022-10-02T07:19:03.529Z,9.00
2022-10-02T07:20:03.536Z,9.08
2022-10-02T07:21:03.498Z,8.97
2022-10-02T07:22:15.134Z,9.00
2022-10-02T07:23:07.538Z,9.01
2022-10-02T07:24:03.466Z,9.13
2022-10-02T07:25:03.454Z,9.06
2022-10-02T07:26:03.443Z,9.16
2022-10-02T07:27:03.540Z,9.24
2022-10-02T07:28:03.507Z,9.27
2022-10-02T07:29:03.415Z,9.26
2022-10-02T07:30:03.405Z,9.38
2022-10-02T07:31:03.394Z,9.23
2022-10-02T07:32:03.377Z,9.38
2022-10-02T07:33:03.379Z,9.27
2022-10-02T07:34:03.426Z,9.20
2022-10-02T07:35:03.344Z,9.15
2022-10-02T07:36:03.359Z,9.22
2022-10-02T07:37:03.327Z,9.24
2022-10-02T07:38:03.328Z,9.26
2022-10-02T07:39:03.313Z,9.27
2022-10-02T07:40:03.334Z,9.34
2022-10-02T07:41:03.288Z,9.32
2022-10-02T07:42:03.272Z,9.40
2022-10-02T07:43:03.262Z,9.45
2022-10-02T07:44:03.259Z,9.55
2022-10-02T07:45:03.301Z,9.68
2022-10-02T07:46:03.375Z,9.70
2022-10-02T07:47:03.219Z,9.74
2022-10-02T07:48:03.223Z,9.73
2022-10-02T07:49:03.201Z,9.71
2022-10-02T07:50:03.187Z,9.71
2022-10-02T07:51:03.175Z,9.71
2022-10-02T07:52:03.204Z,9.71
2022-10-02T07:53:03.253Z,9.96
2022-10-02T07:54:03.147Z,9.96
2022-10-02T07:55:03.132Z,10.04
2022-10-02T07:56:03.180Z,10.10
2022-10-02T07:57:07.605Z,10.20
2022-10-02T07:58:04.095Z,10.14
2022-10-02T07:59:03.089Z,10.14
2022-10-02T08:00:03.099Z,10.20
2022-10-02T08:01:03.133Z,10.17
2022-10-02T08:02:03.161Z,10.25
2022-10-02T08:03:03.113Z,10.32
2022-10-02T08:04:03.031Z,10.44
2022-10-02T08:05:03.016Z,10.51
2022-10-02T08:06:03.023Z,10.42
2022-10-02T08:07:03.023Z,10.54
2022-10-02T08:08:03.010Z,10.63
2022-10-02T08:09:02.974Z,10.54
2022-10-02T08:10:02.967Z,10.42
2022-10-02T08:11:02.954Z,10.39
2022-10-02T08:12:02.958Z,10.39
2022-10-02T08:13:02.999Z,10.43
2022-10-02T08:14:02.921Z,10.35
2022-10-02T08:15:02.935Z,10.44
2022-10-02T08:16:02.951Z,10.35
2022-10-02T08:17:02.887Z,10.38
2022-10-02T08:18:22.951Z,10.44
2022-10-02T08:19:03.918Z,10.52
2022-10-02T08:20:02.864Z,10.51
2022-10-02T08:21:02.852Z,10.42
2022-10-02T08:22:02.829Z,10.55
2022-10-02T08:23:02.818Z,10.58
2022-10-02T08:24:02.835Z,10.43
2022-10-02T08:25:02.796Z,10.51
2022-10-02T08:26:02.859Z,10.54
2022-10-02T08:27:02.774Z,10.70
2022-10-02T08:28:02.841Z,10.49
2022-10-02T08:29:02.753Z,10.68
2022-10-02T08:30:02.846Z,10.73
2022-10-02T08:31:02.733Z,10.80
2022-10-02T08:32:02.799Z,10.88
2022-10-02T08:33:02.704Z,11.01
2022-10-02T08:34:02.695Z,10.95
2022-10-02T08:35:11.333Z,11.19
2022-10-02T08:36:02.673Z,11.06
2022-10-02T08:37:02.660Z,11.08
2022-10-02T08:38:02.654Z,11.01
2022-10-02T08:39:02.641Z,11.02
2022-10-02T08:40:02.663Z,11.17
2022-10-02T08:41:02.627Z,11.19
2022-10-02T08:42:02.613Z,11.17
2022-10-02T08:43:02.629Z,11.35
2022-10-02T08:44:02.588Z,11.31
2022-10-02T08:45:02.580Z,11.30
2022-10-02T08:46:02.754Z,11.53
2022-10-02T08:47:02.555Z,11.51
2022-10-02T08:48:02.548Z,11.64
2022-10-02T08:49:02.546Z,11.62
2022-10-02T08:50:02.524Z,11.72
2022-10-02T08:51:02.589Z,11.69
2022-10-02T08:52:02.505Z,11.79
2022-10-02T08:53:02.541Z,11.75
2022-10-02T08:54:02.701Z,11.75
2022-10-02T08:55:02.475Z,11.72
2022-10-02T08:56:02.491Z,11.70
2022-10-02T08:57:02.502Z,11.82
2022-10-02T08:58:02.444Z,12.22
2022-10-02T08:59:02.429Z,12.30
2022-10-02T09:00:02.437Z,12.25
2022-10-02T09:01:02.503Z,12.08
2022-10-02T09:02:02.444Z,12.08
2022-10-02T09:03:02.434Z,12.15
2022-10-02T09:04:02.371Z,12.74
2022-10-02T09:05:02.357Z,12.76
2022-10-02T09:06:02.345Z,13.14
2022-10-02T09:07:02.340Z,12.77
2022-10-02T09:08:02.333Z,12.94
2022-10-02T09:09:02.342Z,13.01
2022-10-02T09:10:02.304Z,12.81
2022-10-02T09:11:02.294Z,13.13
2022-10-02T09:12:02.308Z,13.48
2022-10-02T09:13:02.282Z,13.17
2022-10-02T09:14:02.270Z,13.25
2022-10-02T09:15:02.257Z,13.13
2022-10-02T09:16:02.342Z,13.41
2022-10-02T09:17:02.225Z,13.81
2022-10-02T09:18:02.217Z,13.41
2022-10-02T09:19:02.218Z,13.46
2022-10-02T09:20:02.199Z,13.72
2022-10-02T09:21:02.185Z,13.87
2022-10-02T09:22:02.179Z,14.35
2022-10-02T09:23:02.175Z,14.79
2022-10-02T09:24:02.154Z,14.91
2022-10-02T09:25:02.141Z,14.86
2022-10-02T09:26:02.134Z,14.74
2022-10-02T09:27:02.169Z,15.00
2022-10-02T09:28:02.206Z,15.20
2022-10-02T09:29:02.119Z,15.27
2022-10-02T09:30:02.354Z,14.94
2022-10-02T09:31:02.142Z,15.52
2022-10-02T09:32:02.143Z,15.40
2022-10-02T09:33:02.148Z,15.46
2022-10-02T09:34:02.055Z,15.68
2022-10-02T09:35:02.098Z,15.86
2022-10-02T09:36:02.024Z,15.96
2022-10-02T09:37:02.010Z,15.64
2022-10-02T09:38:01.999Z,15.64
2022-10-02T09:39:02.046Z,15.70
2022-10-02T09:40:01.983Z,15.59
2022-10-02T09:41:01.986Z,15.40
2022-10-02T09:42:01.982Z,15.16
2022-10-02T09:43:02.045Z,15.19
2022-10-02T09:44:01.992Z,15.33
2022-10-02T09:45:02.174Z,15.33
2022-10-02T09:46:01.996Z,15.71
2022-10-02T09:47:01.904Z,16.01
2022-10-02T09:48:01.910Z,15.85
2022-10-02T09:49:01.878Z,16.04
2022-10-02T09:50:01.882Z,16.55
2022-10-02T09:51:01.913Z,16.70
2022-10-02T09:52:01.847Z,16.32
2022-10-02T09:53:01.859Z,15.85
2022-10-02T09:54:01.838Z,16.04
2022-10-02T09:55:01.820Z,16.42
2022-10-02T09:56:01.803Z,16.18
2022-10-02T09:57:01.807Z,15.91
2022-10-02T09:58:01.790Z,16.23
2022-10-02T09:59:01.773Z,16.06
2022-10-02T10:00:01.783Z,15.85
2022-10-02T10:01:01.873Z,15.86
2022-10-02T10:02:01.850Z,15.95
2022-10-02T10:03:01.744Z,16.27
2022-10-02T10:04:01.718Z,16.55
2022-10-02T10:05:06.154Z,16.51
2022-10-02T10:06:01.703Z,16.32
2022-10-02T10:07:01.700Z,15.80
2022-10-02T10:08:01.683Z,15.77
2022-10-02T10:09:01.670Z,15.68
2022-10-02T10:10:02.277Z,15.77
2022-10-02T10:11:01.656Z,15.98
2022-10-02T10:12:01.740Z,16.42
2022-10-02T10:13:01.618Z,16.52
2022-10-02T10:14:01.649Z,16.59
2022-10-02T10:15:01.597Z,16.69
2022-10-02T10:16:01.680Z,16.69
2022-10-02T10:17:01.580Z,16.52
2022-10-02T10:18:01.571Z,16.91
2022-10-02T10:19:01.569Z,16.70
2022-10-02T10:20:01.712Z,16.99
2022-10-02T10:21:01.529Z,17.25
2022-10-02T10:22:01.522Z,17.24
2022-10-02T10:23:01.568Z,17.45
2022-10-02T10:24:01.507Z,17.43
2022-10-02T10:25:01.495Z,17.06
2022-10-02T10:26:01.483Z,17.14
2022-10-02T10:27:01.465Z,17.07
2022-10-02T10:28:01.493Z,17.24
2022-10-02T10:29:01.468Z,17.05
2022-10-02T10:30:01.436Z,16.67
2022-10-02T10:31:01.432Z,16.96
2022-10-02T10:32:01.582Z,16.65
2022-10-02T10:33:01.402Z,16.17
2022-10-02T10:34:01.387Z,16.42
2022-10-02T10:35:01.393Z,16.51
2022-10-02T10:36:01.427Z,16.73
2022-10-02T10:37:01.376Z,16.54
2022-10-02T10:38:01.359Z,16.78
2022-10-02T10:39:01.333Z,16.81
2022-10-02T10:40:01.319Z,16.72
2022-10-02T10:41:01.310Z,16.69
2022-10-02T10:42:01.302Z,16.62
2022-10-02T10:43:07.965Z,16.85
2022-10-02T10:44:02.305Z,17.40
2022-10-02T10:45:01.312Z,17.24
2022-10-02T10:46:01.319Z,17.14
2022-10-02T10:47:01.242Z,17.09
2022-10-02T10:48:01.335Z,17.54
2022-10-02T10:49:01.249Z,17.99
2022-10-02T10:50:01.214Z,18.05
2022-10-02T10:51:01.245Z,18.26
2022-10-02T10:52:01.190Z,18.13
2022-10-02T10:53:01.257Z,17.92
2022-10-02T10:54:02.183Z,18.26
2022-10-02T10:55:01.156Z,18.07
2022-10-02T10:56:01.145Z,17.83
2022-10-02T10:57:01.138Z,17.76
2022-10-02T10:58:01.222Z,17.89
2022-10-02T10:59:01.112Z,17.49
2022-10-02T11:00:01.135Z,17.58
2022-10-02T11:01:01.239Z,17.43
2022-10-02T11:02:01.119Z,17.25
2022-10-02T11:03:01.071Z,17.46
2022-10-02T11:04:01.153Z,17.57
2022-10-02T11:05:01.055Z,17.21
2022-10-02T11:06:01.040Z,17.12
2022-10-02T11:07:01.041Z,17.40
2022-10-02T11:08:01.019Z,17.77
2022-10-02T11:09:01.076Z,18.10
2022-10-02T11:10:00.995Z,18.56
2022-10-02T11:11:00.985Z,18.17
2022-10-02T11:12:00.972Z,18.25
2022-10-02T11:13:01.067Z,18.28
2022-10-02T11:14:00.953Z,18.41
2022-10-02T11:15:00.953Z,18.65
2022-10-02T11:16:01.002Z,18.39
2022-10-02T11:17:00.922Z,18.19
2022-10-02T11:18:00.910Z,17.57
2022-10-02T11:19:00.897Z,17.86
2022-10-02T11:20:01.006Z,18.14
2022-10-02T11:21:00.880Z,17.63
2022-10-02T11:22:00.890Z,17.32
2022-10-02T11:23:00.857Z,17.07
2022-10-02T11:24:00.845Z,17.27
2022-10-02T11:25:00.835Z,17.63
2022-10-02T11:26:00.855Z,17.71
2022-10-02T11:27:00.827Z,17.91
2022-10-02T11:28:00.876Z,17.58
2022-10-02T11:29:00.794Z,17.21
2022-10-02T11:30:00.779Z,16.80
2022-10-02T11:31:00.785Z,17.36
2022-10-02T11:32:00.822Z,17.76
2022-10-02T11:33:00.747Z,17.95
2022-10-02T11:34:00.844Z,18.01
2022-10-02T11:35:00.725Z,18.07
2022-10-02T11:36:00.801Z,17.65
2022-10-02T11:37:00.706Z,17.39
2022-10-02T11:38:03.971Z,16.98
2022-10-02T11:39:00.777Z,16.85
2022-10-02T11:40:00.763Z,17.20
2022-10-02T11:41:00.667Z,17.39
2022-10-02T11:42:00.650Z,17.57
2022-10-02T11:43:00.644Z,18.04
2022-10-02T11:44:00.630Z,17.74
2022-10-02T11:45:00.750Z,17.15
2022-10-02T11:46:00.711Z,17.36
2022-10-02T11:47:00.816Z,17.76
2022-10-02T11:48:00.589Z,17.91
2022-10-02T11:49:00.577Z,18.14
2022-10-02T11:50:00.568Z,18.13
2022-10-02T11:51:00.752Z,17.73
2022-10-02T11:52:00.569Z,17.35
2022-10-02T11:53:00.536Z,17.53
2022-10-02T11:54:00.520Z,17.51
2022-10-02T11:55:00.571Z,17.35
2022-10-02T11:56:00.517Z,17.71
2022-10-02T11:57:00.497Z,18.16
2022-10-02T11:58:00.562Z,18.10
2022-10-02T11:59:00.464Z,18.11
2022-10-02T12:00:00.460Z,17.79
2022-10-02T12:01:00.457Z,17.81
2022-10-02T12:02:00.475Z,18.35
2022-10-02T12:03:00.553Z,18.01
2022-10-02T12:04:00.415Z,18.05
2022-10-02T12:05:00.446Z,17.89
2022-10-02T12:06:00.395Z,17.73
2022-10-02T12:07:00.379Z,17.89
2022-10-02T12:08:00.415Z,18.05
2022-10-02T12:09:00.357Z,18.41
2022-10-02T12:10:00.346Z,18.62
2022-10-02T12:11:00.338Z,18.74
2022-10-02T12:12:00.324Z,18.36
2022-10-02T12:13:00.317Z,18.71
2022-10-02T12:14:00.328Z,18.89
2022-10-02T12:15:00.296Z,18.41
2022-10-02T12:16:00.312Z,18.60
2022-10-02T12:17:00.324Z,18.62
2022-10-02T12:18:00.317Z,18.82
2022-10-02T12:19:00.280Z,18.57
2022-10-02T12:20:00.244Z,18.54
2022-10-02T12:21:00.232Z,18.26
2022-10-02T12:22:00.226Z,18.26
2022-10-02T12:23:00.216Z,18.10
2022-10-02T12:24:00.232Z,18.01
2022-10-02T12:25:00.213Z,17.74
2022-10-02T12:26:00.196Z,18.05
2022-10-02T12:27:00.167Z,18.46
2022-10-02T12:28:00.249Z,18.83
2022-10-02T12:29:00.140Z,18.69
2022-10-02T12:30:00.200Z,18.84
2022-10-02T12:31:00.235Z,18.62
2022-10-02T12:32:00.220Z,19.06
2022-10-02T12:33:00.113Z,19.17
2022-10-02T12:34:00.109Z,18.89
2022-10-02T12:35:00.090Z,18.41
2022-10-02T12:36:00.088Z,18.25
2022-10-02T12:37:00.088Z,18.09
2022-10-02T12:38:00.053Z,17.84
2022-10-02T12:39:00.039Z,17.84
2022-10-02T12:40:00.071Z,17.65
2022-10-02T12:41:00.077Z,17.27
2022-10-02T12:42:00.002Z,17.71
2022-10-02T12:42:59.998Z,17.81
2022-10-02T12:43:59.983Z,18.09
2022-10-02T12:44:59.973Z,18.44
2022-10-02T12:46:00.017Z,18.68
2022-10-02T12:47:00.109Z,18.76
2022-10-02T12:47:59.944Z,18.65
2022-10-02T12:48:59.929Z,17.92
2022-10-02T12:49:59.916Z,17.28
2022-10-02T12:51:03.405Z,17.15
2022-10-02T12:52:00.959Z,17.27
2022-10-02T12:52:59.941Z,17.76
2022-10-02T12:53:59.881Z,17.95
2022-10-02T12:54:59.863Z,18.26
2022-10-02T12:55:59.879Z,17.96
2022-10-02T12:56:59.850Z,17.83
2022-10-02T12:57:59.836Z,17.70
2022-10-02T12:58:59.818Z,17.24
2022-10-02T12:59:59.857Z,17.24
2022-10-02T13:00:59.873Z,17.83
2022-10-02T13:01:59.873Z,18.09
2022-10-02T13:03:01.581Z,18.53
2022-10-02T13:03:59.767Z,18.47
2022-10-02T13:04:59.760Z,18.86
2022-10-02T13:05:59.789Z,18.59
2022-10-02T13:06:59.738Z,18.54
2022-10-02T13:07:59.740Z,18.68